createdAt,value
2018-09-20T00:00:59.210Z,92.20
2018-09-20T00:03:27.448Z,92.20
2018-09-20T00:05:55.873Z,92.20
2018-09-20T00:08:24.066Z,92.30
2018-09-20T00:10:52.274Z,92.30
2018-09-20T00:13:20.484Z,92.40
2018-09-20T00:15:48.856Z,92.50
2018-09-20T00:18:17.119Z,92.50
2018-09-20T00:20:45.368Z,92.70
2018-09-20T00:23:13.572Z,93.20
2018-09-20T00:25:41.778Z,93.40
2018-09-20T00:28:10.008Z,93.60
2018-09-20T00:30:38.174Z,93.40
2018-09-20T00:33:06.392Z,94.00
2018-09-20T00:35:34.606Z,94.10
2018-09-20T00:38:02.844Z,94.50
2018-09-20T00:40:31.264Z,94.60
2018-09-20T00:42:59.464Z,94.70
2018-09-20T00:45:27.664Z,94.70
2018-09-20T00:47:56.138Z,94.80
2018-09-20T00:50:24.400Z,95.00
2018-09-20T00:52:52.580Z,95.20
2018-09-20T00:55:20.773Z,95.40
2018-09-20T00:57:48.968Z,95.40
2018-09-20T01:00:17.222Z,95.50
2018-09-20T01:02:45.534Z,95.60
2018-09-20T01:05:13.770Z,95.70
2018-09-20T01:07:41.974Z,95.80
2018-09-20T01:10:10.186Z,95.80
2018-09-20T01:12:38.525Z,95.90
2018-09-20T01:15:07.414Z,96.10
2018-09-20T01:17:35.659Z,96.10
2018-09-20T01:20:04.081Z,96.20
2018-09-20T01:22:32.276Z,96.10
2018-09-20T01:25:00.472Z,96.10
2018-09-20T01:27:28.690Z,96.10
2018-09-20T01:29:56.960Z,96.10
2018-09-20T01:32:25.167Z,96.30
2018-09-20T01:34:53.352Z,95.90
2018-09-20T01:37:21.538Z,96.20
2018-09-20T01:39:49.810Z,96.30
2018-09-20T01:42:18.078Z,96.70
2018-09-20T01:44:46.267Z,96.80
2018-09-20T01:47:14.468Z,96.80
2018-09-20T01:49:42.733Z,97.00
2018-09-20T01:52:10.936Z,97.10
2018-09-20T01:54:39.146Z,97.70
2018-09-20T01:57:07.628Z,97.60
2018-09-20T01:59:35.878Z,97.70
2018-09-20T02:02:04.114Z,97.90
2018-09-20T02:04:32.302Z,98.30
2018-09-20T02:07:00.524Z,98.30
2018-09-20T02:09:28.702Z,98.50
2018-09-20T02:11:56.900Z,98.40
2018-09-20T02:14:25.100Z,98.40
2018-09-20T02:16:53.308Z,98.40
2018-09-20T02:19:21.560Z,98.30
2018-09-20T02:21:49.762Z,98.30
2018-09-20T02:24:17.966Z,98.70
2018-09-20T02:26:46.217Z,98.40
2018-09-20T02:29:14.486Z,98.40
2018-09-20T02:31:42.670Z,98.60
2018-09-20T02:34:10.830Z,98.70
2018-09-20T02:36:39.046Z,98.70
2018-09-20T02:39:08.096Z,98.80
2018-09-20T02:41:36.530Z,98.80
2018-09-20T02:44:04.731Z,98.80
2018-09-20T02:46:32.916Z,99.00
2018-09-20T02:49:01.197Z,99.10
2018-09-20T02:51:29.377Z,99.10
2018-09-20T02:53:57.595Z,99.10
2018-09-20T02:56:25.783Z,99.20
2018-09-20T02:58:54.399Z,99.40
2018-09-20T03:01:22.627Z,99.60
2018-09-20T03:03:50.814Z,99.60
2018-09-20T03:06:19.130Z,99.60
2018-09-20T03:08:47.372Z,99.70
2018-09-20T03:11:15.575Z,99.60
2018-09-20T03:13:43.778Z,99.60
2018-09-20T03:16:12.051Z,99.70
2018-09-20T03:18:40.276Z,99.70
2018-09-20T03:21:08.470Z,99.80
2018-09-20T03:23:36.652Z,99.90
2018-09-20T03:26:04.869Z,99.90
2018-09-20T03:28:33.103Z,99.90
2018-09-20T03:31:01.299Z,99.90
2018-09-20T03:33:29.494Z,99.90
2018-09-20T03:35:57.697Z,99.90
2018-09-20T03:38:25.980Z,99.90
2018-09-20T03:40:54.223Z,99.90
2018-09-20T03:43:22.480Z,99.90
2018-09-20T03:45:50.844Z,99.90
2018-09-20T03:48:19.093Z,99.90
2018-09-20T03:50:47.286Z,99.90
2018-09-20T03:53:15.478Z,99.90
2018-09-20T03:55:43.671Z,99.90
2018-09-20T03:58:12.216Z,99.90
2018-09-20T04:00:40.450Z,99.90
2018-09-20T04:03:08.643Z,99.90
2018-09-20T04:05:36.848Z,99.90
2018-09-20T04:08:05.092Z,99.90
2018-09-20T04:10:33.327Z,99.90
2018-09-20T04:13:01.536Z,99.90
2018-09-20T04:15:29.705Z,99.90
2018-09-20T04:17:58.233Z,99.90
2018-09-20T04:20:26.417Z,99.90
2018-09-20T04:22:54.637Z,99.90
2018-09-20T04:25:22.839Z,99.90
2018-09-20T04:27:51.239Z,99.90
2018-09-20T04:30:19.433Z,99.90
2018-09-20T04:32:47.618Z,99.90
2018-09-20T04:35:15.827Z,99.90
2018-09-20T04:37:44.071Z,99.90
2018-09-20T04:40:12.269Z,99.90
2018-09-20T04:42:40.475Z,99.90
2018-09-20T04:45:08.826Z,99.90
2018-09-20T04:47:37.047Z,99.90
2018-09-20T04:50:05.239Z,99.90
2018-09-20T04:52:33.428Z,99.90
2018-09-20T04:55:01.684Z,99.90
2018-09-20T04:57:29.863Z,99.90
2018-09-20T04:59:58.071Z,99.90
2018-09-20T05:02:26.258Z,99.90
2018-09-20T05:04:54.815Z,99.90
2018-09-20T05:07:23.008Z,99.90
2018-09-20T05:09:51.192Z,99.90
2018-09-20T05:12:19.402Z,99.90
2018-09-20T05:14:47.628Z,99.90
2018-09-20T05:17:15.826Z,99.90
2018-09-20T05:19:44.004Z,99.90
2018-09-20T05:22:12.210Z,99.90
2018-09-20T05:24:40.393Z,99.90
2018-09-20T05:27:08.632Z,99.90
2018-09-20T05:29:36.827Z,99.90
2018-09-20T05:32:05.130Z,99.90
2018-09-20T05:34:33.333Z,99.90
2018-09-20T05:37:01.532Z,99.90
2018-09-20T05:39:29.728Z,99.90
2018-09-20T05:41:57.930Z,99.90
2018-09-20T05:44:26.117Z,99.90
2018-09-20T05:46:54.338Z,99.90
2018-09-20T05:49:22.550Z,99.90
2018-09-20T05:51:50.747Z,99.90
2018-09-20T05:54:18.948Z,99.90
2018-09-20T05:56:47.134Z,99.90
2018-09-20T05:59:15.351Z,99.90
2018-09-20T06:01:43.559Z,99.90
2018-09-20T06:04:11.756Z,99.90
2018-09-20T06:06:39.984Z,99.90
2018-09-20T06:09:09.058Z,99.90
2018-09-20T06:11:37.242Z,99.90
2018-09-20T06:14:05.594Z,99.90
2018-09-20T06:16:33.812Z,99.90
2018-09-20T06:19:02.024Z,99.90
2018-09-20T06:21:30.235Z,99.90
2018-09-20T06:23:58.405Z,99.90
2018-09-20T06:27:56.307Z,99.90
2018-09-20T06:30:24.698Z,99.90
2018-09-20T06:32:52.911Z,99.90
2018-09-20T06:35:21.963Z,99.90
2018-09-20T06:37:50.494Z,99.90
2018-09-20T06:40:18.841Z,99.90
2018-09-20T06:42:47.037Z,99.90
2018-09-20T06:45:15.248Z,99.90
2018-09-20T06:47:43.592Z,99.90
2018-09-20T06:50:12.068Z,99.90
2018-09-20T06:52:40.540Z,99.90
2018-09-20T06:55:09.052Z,99.90
2018-09-20T06:57:37.619Z,99.90
2018-09-20T07:00:07.328Z,99.90
2018-09-20T07:02:35.926Z,99.90
2018-09-20T07:05:04.919Z,99.90
2018-09-20T07:07:33.111Z,99.90
2018-09-20T07:10:01.594Z,99.90
2018-09-20T07:12:30.232Z,99.90
2018-09-20T07:14:58.647Z,99.90
2018-09-20T07:17:26.859Z,99.90
2018-09-20T07:19:55.558Z,99.90
2018-09-20T07:22:23.756Z,99.90
2018-09-20T07:24:51.960Z,99.90
2018-09-20T07:27:20.162Z,99.60
2018-09-20T07:29:48.392Z,98.80
2018-09-20T07:32:16.735Z,98.00
2018-09-20T07:34:44.939Z,97.00
2018-09-20T07:37:13.152Z,95.70
2018-09-20T07:39:41.560Z,93.90
2018-09-20T07:42:09.963Z,92.00
2018-09-20T07:44:38.175Z,90.20
2018-09-20T07:47:06.378Z,89.40
2018-09-20T07:49:34.610Z,87.40
2018-09-20T07:52:02.805Z,84.80
2018-09-20T07:54:31.014Z,82.10
2018-09-20T07:56:59.214Z,78.20
2018-09-20T07:59:27.394Z,74.50
2018-09-20T08:01:55.662Z,72.00
2018-09-20T08:04:23.803Z,69.40
2018-09-20T08:06:52.051Z,67.70
2018-09-20T08:09:20.195Z,66.20
2018-09-20T08:11:48.418Z,64.50
2018-09-20T08:14:16.824Z,62.90
2018-09-20T08:16:45.017Z,61.30
2018-09-20T08:19:13.382Z,59.50
2018-09-20T08:22:11.554Z,58.60
2018-09-20T08:24:39.751Z,56.50
2018-09-20T08:27:07.939Z,55.80
2018-09-20T08:29:36.155Z,55.10
2018-09-20T08:32:04.582Z,53.80
2018-09-20T08:34:32.760Z,52.00
2018-09-20T08:37:00.991Z,50.60
2018-09-20T08:39:29.175Z,50.10
2018-09-20T08:41:57.390Z,50.30
2018-09-20T08:44:25.588Z,50.40
2018-09-20T08:46:53.782Z,49.90
2018-09-20T08:49:21.960Z,49.30
2018-09-20T08:51:50.149Z,49.10
2018-09-20T08:54:18.339Z,48.40
2018-09-20T08:56:46.545Z,48.20
2018-09-20T08:59:14.738Z,48.30
2018-09-20T09:01:42.958Z,48.60
2018-09-20T09:04:11.175Z,47.50
2018-09-20T09:06:39.355Z,47.10
2018-09-20T09:09:08.967Z,47.30
2018-09-20T09:11:37.875Z,46.80
2018-09-20T09:14:06.337Z,46.10
2018-09-20T09:16:34.507Z,46.10
2018-09-20T09:19:02.919Z,45.90
2018-09-20T09:21:31.093Z,45.00
2018-09-20T09:23:59.291Z,44.80
2018-09-20T09:26:27.489Z,44.20
2018-09-20T09:28:55.688Z,44.00
2018-09-20T09:31:23.875Z,43.40
2018-09-20T09:33:52.126Z,42.60
2018-09-20T09:36:20.399Z,42.70
2018-09-20T09:38:49.045Z,42.50
2018-09-20T09:41:17.214Z,42.00
2018-09-20T09:43:45.403Z,42.00
2018-09-20T09:46:13.594Z,41.40
2018-09-20T09:48:41.994Z,40.70
2018-09-20T09:51:10.507Z,40.20
2018-09-20T09:53:38.687Z,39.00
2018-09-20T09:56:06.859Z,39.20
2018-09-20T09:58:35.125Z,39.30
2018-09-20T10:01:03.319Z,39.60
2018-09-20T10:03:31.539Z,39.40
2018-09-20T10:05:59.726Z,39.50
2018-09-20T10:08:27.973Z,39.10
2018-09-20T10:10:56.161Z,38.60
2018-09-20T10:13:24.418Z,38.20
2018-09-20T10:15:52.565Z,38.30
2018-09-20T10:18:20.780Z,37.90
2018-09-20T10:20:48.989Z,37.90
2018-09-20T10:23:17.197Z,37.60
2018-09-20T10:25:45.379Z,36.90
2018-09-20T10:28:13.835Z,36.40
2018-09-20T10:30:42.038Z,35.80
2018-09-20T10:33:10.216Z,35.50
2018-09-20T10:35:38.408Z,35.10
2018-09-20T10:38:06.641Z,35.40
2018-09-20T10:40:34.861Z,35.40
2018-09-20T10:43:03.058Z,35.60
2018-09-20T10:45:31.258Z,35.90
2018-09-20T10:47:59.677Z,35.50
2018-09-20T10:50:27.870Z,35.70
2018-09-20T10:52:56.072Z,35.60
2018-09-20T10:55:24.273Z,35.50
2018-09-20T10:57:52.514Z,35.50
2018-09-20T11:00:20.697Z,34.50
2018-09-20T11:02:48.912Z,34.10
2018-09-20T11:05:17.200Z,33.50
2018-09-20T11:07:45.375Z,33.10
2018-09-20T11:10:13.614Z,33.20
2018-09-20T11:12:41.804Z,33.10
2018-09-20T11:15:10.044Z,32.70
2018-09-20T11:17:38.228Z,32.60
2018-09-20T11:20:06.708Z,32.60
2018-09-20T11:22:34.926Z,32.20
2018-09-20T11:25:03.136Z,31.70
2018-09-20T11:27:31.312Z,31.80
2018-09-20T11:29:59.543Z,32.20
2018-09-20T11:32:27.736Z,31.70
2018-09-20T11:34:55.930Z,32.00
2018-09-20T11:37:24.120Z,32.00
2018-09-20T11:39:52.338Z,31.20
2018-09-20T11:42:20.525Z,30.70
2018-09-20T11:44:48.730Z,29.70
2018-09-20T11:47:16.964Z,29.60
2018-09-20T11:49:45.134Z,29.80
2018-09-20T11:52:13.354Z,29.50
2018-09-20T11:54:41.573Z,29.40
2018-09-20T11:57:09.754Z,29.20
2018-09-20T11:59:38.030Z,28.80
2018-09-20T12:02:06.247Z,28.70
2018-09-20T12:04:34.443Z,28.30
2018-09-20T12:07:02.635Z,28.20
2018-09-20T12:09:30.856Z,28.40
2018-09-20T12:11:59.035Z,28.10
2018-09-20T12:14:27.255Z,28.20
2018-09-20T12:16:55.449Z,28.10
2018-09-20T12:19:23.680Z,28.50
2018-09-20T12:21:51.874Z,28.30
2018-09-20T12:24:20.096Z,27.90
2018-09-20T12:26:48.472Z,28.00
2018-09-20T12:29:16.645Z,28.00
2018-09-20T12:31:44.893Z,27.80
2018-09-20T12:34:13.048Z,28.50
2018-09-20T12:36:41.601Z,28.20
2018-09-20T12:39:12.121Z,28.50
2018-09-20T12:41:40.560Z,28.30
2018-09-20T12:44:08.776Z,28.20
2018-09-20T12:46:37.067Z,28.10
2018-09-20T12:49:05.634Z,27.90
2018-09-20T12:51:34.552Z,28.50
2018-09-20T12:54:03.160Z,29.30
2018-09-20T12:56:31.529Z,29.40
2018-09-20T12:58:59.734Z,29.00
2018-09-20T13:01:27.924Z,29.20
2018-09-20T13:03:56.095Z,29.20
2018-09-20T13:06:24.287Z,29.00
2018-09-20T13:08:52.473Z,29.10
2018-09-20T13:11:20.682Z,29.00
2018-09-20T13:13:48.872Z,29.20
2018-09-20T13:16:17.032Z,29.20
2018-09-20T13:18:45.245Z,29.30
2018-09-20T13:21:13.459Z,29.30
2018-09-20T13:23:41.671Z,29.40
2018-09-20T13:26:10.081Z,29.80
2018-09-20T13:28:38.303Z,29.70
2018-09-20T13:31:06.481Z,29.50
2018-09-20T13:33:34.664Z,29.50
2018-09-20T13:36:02.840Z,29.40
2018-09-20T13:38:31.039Z,29.80
2018-09-20T13:40:59.262Z,29.90
2018-09-20T13:43:27.515Z,30.30
2018-09-20T13:45:55.674Z,29.70
2018-09-20T13:48:23.909Z,29.50
2018-09-20T13:50:52.124Z,29.00
2018-09-20T13:53:20.330Z,29.30
2018-09-20T13:55:48.506Z,29.90
2018-09-20T13:58:16.722Z,29.90
2018-09-20T14:00:44.890Z,29.90
2018-09-20T14:03:13.120Z,30.00
2018-09-20T14:05:41.310Z,30.10
2018-09-20T14:08:09.580Z,30.30
2018-09-20T14:10:37.762Z,30.70
2018-09-20T14:13:05.944Z,30.40
2018-09-20T14:15:34.186Z,30.40
2018-09-20T14:18:02.408Z,30.10
2018-09-20T14:20:30.624Z,30.10
2018-09-20T14:22:58.811Z,30.30
2018-09-20T14:25:27.043Z,29.90
2018-09-20T14:27:55.410Z,29.60
2018-09-20T14:30:23.620Z,29.50
2018-09-20T14:32:51.833Z,29.70
2018-09-20T14:35:20.032Z,29.70
2018-09-20T14:37:48.239Z,29.70
2018-09-20T14:40:16.468Z,29.90
2018-09-20T14:42:44.713Z,30.00
2018-09-20T14:45:12.937Z,29.70
2018-09-20T14:47:41.197Z,29.70
2018-09-20T14:50:09.482Z,30.00
2018-09-20T14:52:39.137Z,30.00
2018-09-20T14:55:08.712Z,30.50
2018-09-20T14:57:38.994Z,30.90
2018-09-20T15:00:07.195Z,31.20
2018-09-20T15:02:35.387Z,31.80
2018-09-20T15:05:03.604Z,33.40
2018-09-20T15:07:31.795Z,34.50
2018-09-20T15:09:59.975Z,35.30
2018-09-20T15:12:28.187Z,36.30
2018-09-20T15:14:56.375Z,37.50
2018-09-20T15:17:24.571Z,38.20
2018-09-20T15:19:52.765Z,38.30
2018-09-20T15:22:20.969Z,38.80
2018-09-20T15:24:49.177Z,39.40
2018-09-20T15:27:17.403Z,39.80
2018-09-20T15:29:45.707Z,40.00
2018-09-20T15:32:13.875Z,40.10
2018-09-20T15:34:42.107Z,40.20
2018-09-20T15:37:10.295Z,40.60
2018-09-20T15:39:38.528Z,40.90
2018-09-20T15:42:06.712Z,41.10
2018-09-20T15:44:34.936Z,41.30
2018-09-20T15:47:03.164Z,41.30
2018-09-20T15:49:31.394Z,41.10
2018-09-20T15:51:59.660Z,40.90
2018-09-20T15:54:27.862Z,40.80
2018-09-20T15:56:56.075Z,40.60
2018-09-20T15:59:24.604Z,40.30
2018-09-20T16:01:52.799Z,40.30
2018-09-20T16:04:21.026Z,40.20
2018-09-20T16:06:49.402Z,40.20
2018-09-20T16:09:17.622Z,40.00
2018-09-20T16:11:45.823Z,40.30
2018-09-20T16:14:14.054Z,40.70
2018-09-20T16:16:42.214Z,41.30
2018-09-20T16:19:10.402Z,41.80
2018-09-20T16:21:38.595Z,41.90
2018-09-20T16:24:06.859Z,42.00
2018-09-20T16:26:35.069Z,42.00
2018-09-20T16:29:21.570Z,42.00
2018-09-20T16:34:04.251Z,42.30
2018-09-20T16:36:52.193Z,42.70
2018-09-20T16:39:23.946Z,43.70
2018-09-20T16:41:57.307Z,43.70
2018-09-20T16:44:25.528Z,44.00
2018-09-20T16:46:53.716Z,44.20
2018-09-20T16:49:21.937Z,44.40
2018-09-20T16:51:50.110Z,44.60
2018-09-20T16:54:18.296Z,44.90
2018-09-20T16:56:46.562Z,45.10
2018-09-20T16:59:14.763Z,45.30
2018-09-20T17:01:42.960Z,45.40
2018-09-20T17:04:11.185Z,45.60
2018-09-20T17:06:39.387Z,45.80
2018-09-20T17:09:08.315Z,46.00
2018-09-20T17:11:36.530Z,46.20
2018-09-20T17:14:04.754Z,46.50
2018-09-20T17:16:33.115Z,47.00
2018-09-20T17:19:01.219Z,47.60
2018-09-20T17:21:29.430Z,47.90
2018-09-20T17:23:57.648Z,48.30
2018-09-20T17:26:25.846Z,48.50
2018-09-20T17:28:54.057Z,48.70
2018-09-20T17:31:22.254Z,49.10
2018-09-20T17:33:50.489Z,49.40
2018-09-20T17:36:19.658Z,49.70
2018-09-20T17:38:49.247Z,50.10
2018-09-20T17:41:22.360Z,50.60
2018-09-20T17:43:52.628Z,50.80
2018-09-20T17:46:20.838Z,51.20
2018-09-20T17:48:49.052Z,51.50
2018-09-20T17:51:18.540Z,51.90
2018-09-20T17:53:47.130Z,52.00
2018-09-20T17:56:15.938Z,52.40
2018-09-20T17:58:44.773Z,52.70
2018-09-20T18:01:12.969Z,52.90
2018-09-20T18:03:41.254Z,52.90
2018-09-20T18:06:09.589Z,53.10
2018-09-20T18:08:37.861Z,53.20
2018-09-20T18:11:06.204Z,53.40
2018-09-20T18:13:34.398Z,53.60
2018-09-20T18:16:02.628Z,53.90
2018-09-20T18:18:30.883Z,54.20
2018-09-20T18:20:59.089Z,54.40
2018-09-20T18:23:27.279Z,54.60
2018-09-20T18:25:55.501Z,54.80
2018-09-20T18:28:23.705Z,54.90
2018-09-20T18:30:51.899Z,55.00
2018-09-20T18:33:20.099Z,55.20
2018-09-20T18:35:48.322Z,55.40
2018-09-20T18:38:16.546Z,55.60
2018-09-20T18:40:44.748Z,55.90
2018-09-20T18:43:12.979Z,56.00
2018-09-20T18:45:41.350Z,56.10
2018-09-20T18:48:09.629Z,56.50
2018-09-20T18:50:37.851Z,56.60
2018-09-20T18:53:06.082Z,56.60
2018-09-20T18:55:34.332Z,56.90
2018-09-20T18:58:02.534Z,57.10
2018-09-20T19:00:30.778Z,57.30
2018-09-20T19:02:59.014Z,57.50
2018-09-20T19:05:27.213Z,57.60
2018-09-20T19:07:55.468Z,58.20
2018-09-20T19:10:23.689Z,58.20
2018-09-20T19:12:51.926Z,58.30
2018-09-20T19:15:20.137Z,58.40
2018-09-20T19:17:48.431Z,58.50
2018-09-20T19:20:16.607Z,58.80
2018-09-20T19:22:44.819Z,58.80
2018-09-20T19:25:13.007Z,59.00
2018-09-20T19:27:41.324Z,59.10
2018-09-20T19:30:09.463Z,59.30
2018-09-20T19:32:37.702Z,59.50
2018-09-20T19:35:05.939Z,59.90
2018-09-20T19:37:34.155Z,60.10
2018-09-20T19:40:02.404Z,60.30
2018-09-20T19:42:30.667Z,60.50
2018-09-20T19:44:58.877Z,61.40
2018-09-20T19:47:27.093Z,60.80
2018-09-20T19:49:55.272Z,61.20
2018-09-20T19:52:23.471Z,61.50
2018-09-20T19:54:51.690Z,61.80
2018-09-20T19:57:20.123Z,61.90
2018-09-20T19:59:48.334Z,62.10
2018-09-20T20:02:16.573Z,62.50
2018-09-20T20:04:44.795Z,62.60
2018-09-20T20:07:14.855Z,62.90
2018-09-20T20:09:43.022Z,63.50
2018-09-20T20:12:11.225Z,63.90
2018-09-20T20:14:39.440Z,64.20
2018-09-20T20:17:07.634Z,64.30
2018-09-20T20:19:35.952Z,64.40
2018-09-20T20:22:04.124Z,64.60
2018-09-20T20:24:32.365Z,64.60
2018-09-20T20:27:00.577Z,64.90
2018-09-20T20:29:28.781Z,65.10
2018-09-20T20:31:56.966Z,65.60
2018-09-20T20:34:25.158Z,65.80
2018-09-20T20:36:53.353Z,66.40
2018-09-20T20:39:21.575Z,66.80
2018-09-20T20:41:49.775Z,66.90
2018-09-20T20:44:17.966Z,67.20
2018-09-20T20:46:46.394Z,67.30
2018-09-20T20:49:14.601Z,67.40
2018-09-20T20:51:42.987Z,67.80
2018-09-20T20:54:11.203Z,68.10
2018-09-20T20:56:39.423Z,68.40
2018-09-20T20:59:07.948Z,68.70
2018-09-20T21:01:36.536Z,69.00
2018-09-20T21:04:04.731Z,69.10
2018-09-20T21:06:32.909Z,69.30
2018-09-20T21:09:01.139Z,69.70
2018-09-20T21:11:29.356Z,69.90
2018-09-20T21:13:57.554Z,70.10
2018-09-20T21:16:25.729Z,70.20
2018-09-20T21:18:53.939Z,70.20
2018-09-20T21:21:22.435Z,70.50
2018-09-20T21:23:50.637Z,70.60
2018-09-20T21:26:18.851Z,71.10
2018-09-20T21:28:47.047Z,71.10
2018-09-20T21:31:15.324Z,71.50
2018-09-20T21:33:43.587Z,71.90
2018-09-20T21:36:11.777Z,72.30
2018-09-20T21:38:40.041Z,73.30
2018-09-20T21:41:08.506Z,72.90
2018-09-20T21:43:36.761Z,73.10
2018-09-20T21:46:05.049Z,73.50
2018-09-20T21:48:33.332Z,74.00
2018-09-20T21:51:01.583Z,74.40
2018-09-20T21:53:29.724Z,74.80
2018-09-20T21:55:57.932Z,75.40
2018-09-20T21:58:26.128Z,75.90
2018-09-20T22:00:59.544Z,76.30
2018-09-20T22:03:27.744Z,76.60
2018-09-20T22:05:55.938Z,76.90
2018-09-20T22:08:24.205Z,77.10
2018-09-20T22:10:52.407Z,77.30
2018-09-20T22:13:20.634Z,77.60
2018-09-20T22:15:48.920Z,77.80
2018-09-20T22:18:17.190Z,77.90
2018-09-20T22:20:45.396Z,78.20
2018-09-20T22:23:13.651Z,78.70
2018-09-20T22:25:41.855Z,79.10
2018-09-20T22:28:10.098Z,79.50
2018-09-20T22:30:38.344Z,79.80
2018-09-20T22:33:06.529Z,80.00
2018-09-20T22:35:34.730Z,80.20
2018-09-20T22:38:03.010Z,80.50
2018-09-20T22:40:31.280Z,80.80
2018-09-20T22:42:59.526Z,81.10
2018-09-20T22:45:27.780Z,81.40
2018-09-20T22:47:56.241Z,81.80
2018-09-20T22:50:24.451Z,81.90
2018-09-20T22:52:52.644Z,82.10
2018-09-20T22:55:21.268Z,82.50
2018-09-20T22:57:49.500Z,82.60
2018-09-20T23:00:23.032Z,83.00
2018-09-20T23:02:52.200Z,83.50
2018-09-20T23:05:20.402Z,83.90
2018-09-20T23:07:48.590Z,84.30
2018-09-20T23:10:16.860Z,84.50
2018-09-20T23:12:45.616Z,84.90
2018-09-20T23:15:13.850Z,85.10
2018-09-20T23:17:42.046Z,85.30
2018-09-20T23:20:10.308Z,85.70
2018-09-20T23:22:38.572Z,86.00
2018-09-20T23:25:06.824Z,86.30
2018-09-20T23:27:35.042Z,86.80
2018-09-20T23:30:03.236Z,87.30
2018-09-20T23:32:31.470Z,87.80
2018-09-20T23:34:59.685Z,88.20
2018-09-20T23:37:27.902Z,88.40
2018-09-20T23:39:56.092Z,88.80
2018-09-20T23:42:24.454Z,89.10
2018-09-20T23:44:52.664Z,89.30
2018-09-20T23:47:20.858Z,89.50
2018-09-20T23:49:49.148Z,89.70
2018-09-20T23:52:17.342Z,89.80
2018-09-20T23:54:45.534Z,89.90
2018-09-20T23:57:13.718Z,89.90
2018-09-20T23:59:41.918Z,90.00
